Time;durP1;ratioP1;P1;durP2;ratioP2;P2;SDS_P1;SDS_P2;PMS_P1;PMS_P2;Temp;Humidity;BMP_temperature;BMP_pressure;BME280_temperature;BME280_humidity;BME280_pressure;Samples;Min_cycle;Max_cycle;Signal;HPM_P1;HPM_P2
2024/01/17 00:02:12;;;;;;;18.80;17.13;;;-1.90;99.90;;;;;;4957625;28;20849;-63
2024/01/17 00:04:39;;;;;;;18.40;16.80;;;-1.90;99.90;;;;;;4953970;28;20755;-64
2024/01/17 00:07:06;;;;;;;17.47;16.20;;;-1.90;99.90;;;;;;4950438;28;20199;-65
2024/01/17 00:09:33;;;;;;;17.23;16.07;;;-2.00;99.90;;;;;;4938011;28;20194;-64
2024/01/17 00:12:04;;;;;;;18.03;16.63;;;-2.00;99.90;;;;;;4931399;29;20200;-65
2024/01/17 00:14:31;;;;;;;17.17;15.97;;;-2.00;99.90;;;;;;4957752;28;20210;-65
2024/01/17 00:17:00;;;;;;;17.97;16.57;;;-1.90;99.90;;;;;;4950823;28;20205;-65
2024/01/17 00:19:29;;;;;;;17.80;16.23;;;-2.00;99.90;;;;;;4952676;28;20712;-64
2024/01/17 00:21:57;;;;;;;17.30;16.00;;;-2.00;99.90;;;;;;4944089;28;20287;-64
2024/01/17 00:24:24;;;;;;;17.97;16.40;;;-2.00;99.90;;;;;;4952376;28;20589;-65
2024/01/17 00:26:51;;;;;;;18.50;16.77;;;-2.00;99.90;;;;;;4949097;28;20289;-66
2024/01/17 00:29:18;;;;;;;17.83;16.40;;;-2.10;99.90;;;;;;4953879;28;20255;-64
2024/01/17 00:31:45;;;;;;;17.40;16.27;;;-2.10;99.90;;;;;;4950424;28;20207;-64
2024/01/17 00:34:12;;;;;;;21.10;17.17;;;-2.10;99.90;;;;;;4941720;28;20202;-64
2024/01/17 00:36:39;;;;;;;17.77;16.47;;;-2.10;99.90;;;;;;4951312;28;20187;-64
2024/01/17 00:39:06;;;;;;;17.13;15.77;;;-2.20;99.90;;;;;;4947485;28;20569;-64
2024/01/17 00:41:33;;;;;;;17.43;16.13;;;-2.20;99.90;;;;;;4942222;28;20194;-63
2024/01/17 00:44:00;;;;;;;18.00;16.33;;;-2.20;99.90;;;;;;4945125;28;20207;-65
2024/01/17 00:46:27;;;;;;;17.17;15.97;;;-2.30;99.90;;;;;;4932526;28;20257;-65
2024/01/17 00:48:53;;;;;;;17.90;16.47;;;-2.20;99.90;;;;;;4956145;28;20302;-65
2024/01/17 00:51:25;;;;;;;17.57;16.30;;;-2.30;99.90;;;;;;4949624;28;20207;-65
2024/01/17 00:53:53;;;;;;;17.73;16.47;;;-2.30;99.90;;;;;;4940940;28;20218;-65
2024/01/17 00:56:20;;;;;;;17.97;16.67;;;-2.30;99.90;;;;;;4954133;28;20222;-66
2024/01/17 00:58:47;;;;;;;18.17;16.50;;;-2.30;99.90;;;;;;4936141;28;20202;-66
2024/01/17 01:01:14;;;;;;;16.07;15.03;;;-2.30;99.90;;;;;;4951115;28;20234;-65
2024/01/17 01:03:41;;;;;;;18.70;17.00;;;-2.30;99.90;;;;;;4950108;28;20603;-64
2024/01/17 01:06:08;;;;;;;17.33;16.03;;;-2.30;99.90;;;;;;4964450;28;20293;-65
2024/01/17 01:08:35;;;;;;;17.33;16.07;;;-2.40;99.90;;;;;;4953384;28;20702;-66
2024/01/17 01:11:02;;;;;;;16.87;15.77;;;-2.30;99.90;;;;;;4951015;28;20207;-65
2024/01/17 01:13:29;;;;;;;17.30;16.10;;;-2.30;99.90;;;;;;4946132;28;20219;-65
2024/01/17 01:15:56;;;;;;;17.50;16.10;;;-2.40;99.90;;;;;;4936138;29;20285;-65
2024/01/17 01:18:23;;;;;;;18.27;16.97;;;-2.40;99.90;;;;;;4950265;28;20199;-65
2024/01/17 01:20:50;;;;;;;17.70;16.40;;;-2.40;99.90;;;;;;4930902;28;20213;-65
2024/01/17 01:23:17;;;;;;;17.57;16.30;;;-2.40;99.90;;;;;;4953533;28;20195;-65
2024/01/17 01:25:44;;;;;;;17.17;16.00;;;-2.50;99.90;;;;;;4944312;28;20199;-65
2024/01/17 01:28:11;;;;;;;17.67;16.27;;;-2.50;99.90;;;;;;4950847;28;20298;-64
2024/01/17 01:30:38;;;;;;;17.80;16.53;;;-2.50;99.90;;;;;;4954420;28;20406;-65
2024/01/17 01:33:05;;;;;;;17.87;16.20;;;-2.60;99.90;;;;;;4948102;28;20588;-65
2024/01/17 01:35:32;;;;;;;17.33;16.00;;;-2.70;99.90;;;;;;4933338;28;20234;-65
2024/01/17 01:37:59;;;;;;;17.63;16.33;;;-2.70;99.90;;;;;;4945837;28;20742;-64
2024/01/17 01:40:26;;;;;;;18.60;16.83;;;-2.70;99.90;;;;;;4949903;28;20187;-65
2024/01/17 01:42:56;;;;;;;16.50;15.40;;;-2.70;99.90;;;;;;4944339;28;20207;-64
2024/01/17 01:45:23;;;;;;;16.97;15.80;;;-2.70;99.90;;;;;;4953261;28;20501;-64
2024/01/17 01:47:51;;;;;;;16.70;15.60;;;-2.70;99.90;;;;;;4950907;28;20642;-63
2024/01/17 01:50:18;;;;;;;17.23;15.97;;;-2.70;99.90;;;;;;4947069;28;20186;-65
2024/01/17 01:52:49;;;;;;;17.67;16.47;;;-2.70;99.90;;;;;;4954570;28;20214;-65
2024/01/17 01:55:16;;;;;;;17.00;15.87;;;-2.70;99.90;;;;;;4950660;28;20196;-65
2024/01/17 01:57:50;;;;;;;16.90;15.90;;;-2.70;99.90;;;;;;4941753;28;20667;-65
2024/01/17 02:00:17;;;;;;;16.90;15.70;;;-2.70;99.90;;;;;;4942851;28;20273;-64
2024/01/17 02:02:45;;;;;;;17.40;16.20;;;-2.70;99.90;;;;;;4947183;28;20290;-64
2024/01/17 02:05:13;;;;;;;16.50;15.40;;;-2.80;99.90;;;;;;4933626;29;20725;-64
2024/01/17 02:07:40;;;;;;;16.97;15.87;;;-2.80;99.90;;;;;;4953750;28;20281;-64
2024/01/17 02:10:08;;;;;;;17.40;16.10;;;-2.90;99.90;;;;;;4921389;28;20675;-64
2024/01/17 02:12:36;;;;;;;17.27;16.17;;;-3.00;99.90;;;;;;4958748;28;20195;-64
2024/01/17 02:15:04;;;;;;;18.00;16.37;;;-2.90;99.90;;;;;;4955887;28;20258;-65
2024/01/17 02:17:31;;;;;;;16.77;15.67;;;-2.90;99.90;;;;;;4931270;28;20237;-64
2024/01/17 02:19:58;;;;;;;16.43;15.33;;;-3.00;99.90;;;;;;4959392;28;20195;-65
2024/01/17 02:22:25;;;;;;;16.30;15.30;;;-3.10;99.90;;;;;;4919467;29;20632;-60
2024/01/17 02:24:52;;;;;;;17.90;16.53;;;-3.10;99.90;;;;;;4954580;28;20604;-59
2024/01/17 02:27:19;;;;;;;17.30;15.97;;;-3.10;99.90;;;;;;4949482;28;20329;-60
2024/01/17 02:29:47;;;;;;;16.33;15.13;;;-3.10;99.90;;;;;;4953061;28;20621;-59
2024/01/17 02:32:15;;;;;;;17.10;15.87;;;-3.10;99.90;;;;;;4956182;28;20199;-61
2024/01/17 02:34:42;;;;;;;16.47;15.40;;;-3.10;99.90;;;;;;4954970;28;20266;-61
2024/01/17 02:37:12;;;;;;;18.03;16.53;;;-3.10;99.90;;;;;;4954329;28;20187;-60
2024/01/17 02:39:39;;;;;;;17.13;15.93;;;-3.20;99.90;;;;;;4938862;28;20557;-60
2024/01/17 02:42:06;;;;;;;17.30;16.00;;;-3.10;99.90;;;;;;4936276;29;20269;-59
2024/01/17 02:44:33;;;;;;;16.87;15.67;;;-3.20;99.90;;;;;;4952208;28;20605;-60
2024/01/17 02:47:00;;;;;;;17.20;16.10;;;-3.20;99.90;;;;;;4948610;28;20210;-61
2024/01/17 02:49:27;;;;;;;17.93;16.40;;;-3.10;99.90;;;;;;4951255;28;20322;-60
2024/01/17 02:51:54;;;;;;;17.73;16.50;;;-3.10;99.90;;;;;;4950243;28;20289;-60
2024/01/17 02:54:21;;;;;;;17.73;16.40;;;-3.10;99.90;;;;;;4954640;28;20235;-59
2024/01/17 02:56:48;;;;;;;17.63;16.43;;;-3.10;99.90;;;;;;4920059;28;20333;-59
2024/01/17 02:59:15;;;;;;;17.30;16.10;;;-3.10;99.90;;;;;;4958796;28;20561;-60
2024/01/17 03:05:42;;;;;;;17.43;16.13;;;-3.10;99.90;;;;;;4953173;28;20346;-61
2024/01/17 03:08:09;;;;;;;17.17;15.90;;;-3.10;99.90;;;;;;4950501;28;20215;-60
2024/01/17 03:10:36;;;;;;;16.80;15.70;;;-3.10;99.90;;;;;;4945005;28;20223;-62
2024/01/17 03:13:03;;;;;;;19.00;17.07;;;-3.10;99.90;;;;;;4917292;28;20611;-60
2024/01/17 03:15:30;;;;;;;18.13;16.40;;;-3.10;99.90;;;;;;4950097;28;20194;-61
2024/01/17 03:17:57;;;;;;;22.13;16.87;;;-3.00;99.90;;;;;;4957028;28;20489;-62
2024/01/17 03:20:24;;;;;;;17.83;16.23;;;-3.00;99.90;;;;;;4953390;28;20453;-62
2024/01/17 03:22:55;;;;;;;16.97;15.73;;;-3.00;99.90;;;;;;4941912;28;20370;-63
2024/01/17 03:25:25;;;;;;;17.10;15.90;;;-3.00;99.90;;;;;;4950215;28;20666;-64
2024/01/17 03:27:52;;;;;;;18.37;16.77;;;-2.90;99.90;;;;;;4945347;28;20222;-64
2024/01/17 03:30:19;;;;;;;17.43;16.17;;;-2.90;99.90;;;;;;4950809;28;20665;-61
2024/01/17 03:32:46;;;;;;;17.37;16.13;;;-2.90;99.90;;;;;;4953072;28;20201;-63
2024/01/17 03:35:14;;;;;;;17.53;16.27;;;-2.80;99.90;;;;;;4942498;28;20751;-62
2024/01/17 03:37:40;;;;;;;17.10;15.90;;;-2.80;99.90;;;;;;4951517;28;20280;-62
2024/01/17 03:40:08;;;;;;;16.83;15.60;;;-2.70;99.90;;;;;;4948599;28;20281;-61
2024/01/17 03:42:35;;;;;;;18.57;17.27;;;-2.70;99.90;;;;;;4949943;28;20277;-61
2024/01/17 03:45:02;;;;;;;18.50;17.13;;;-2.60;99.90;;;;;;4933616;28;20218;-60
2024/01/17 03:47:29;;;;;;;17.53;16.13;;;-2.60;99.90;;;;;;4948852;28;20217;-61
2024/01/17 03:49:56;;;;;;;20.33;16.60;;;-2.50;99.90;;;;;;4946193;28;20204;-61
2024/01/17 03:52:23;;;;;;;17.37;16.10;;;-2.50;99.90;;;;;;4951084;28;20207;-60
2024/01/17 03:54:50;;;;;;;16.37;15.17;;;-2.50;99.90;;;;;;4934203;29;20527;-59
2024/01/17 03:57:17;;;;;;;19.13;17.30;;;-2.40;99.90;;;;;;4948821;28;20204;-60
2024/01/17 03:59:44;;;;;;;18.53;16.97;;;-2.40;99.90;;;;;;4959251;28;20314;-60
2024/01/17 04:02:11;;;;;;;19.13;17.23;;;-2.40;99.90;;;;;;4934058;29;20198;-60
2024/01/17 04:04:41;;;;;;;17.97;16.50;;;-2.40;99.90;;;;;;4952590;28;20229;-61
2024/01/17 04:07:09;;;;;;;17.63;16.23;;;-2.40;99.90;;;;;;4933403;28;20199;-62
2024/01/17 04:09:36;;;;;;;17.80;16.40;;;-2.40;99.90;;;;;;4945653;28;20229;-63
2024/01/17 04:12:04;;;;;;;18.93;17.03;;;-2.40;99.90;;;;;;4954413;28;20283;-60
2024/01/17 04:14:32;;;;;;;18.43;16.83;;;-2.50;99.90;;;;;;4953449;28;20230;-61
2024/01/17 04:16:59;;;;;;;18.70;17.23;;;-2.60;99.90;;;;;;4952153;28;20221;-61
2024/01/17 04:19:26;;;;;;;18.30;16.77;;;-2.50;99.90;;;;;;4954706;28;20201;-62
2024/01/17 04:21:58;;;;;;;17.40;16.23;;;-2.60;99.90;;;;;;4952010;28;20842;-62
2024/01/17 04:24:25;;;;;;;18.57;17.10;;;-2.60;99.90;;;;;;4948375;28;20191;-60
2024/01/17 04:26:56;;;;;;;19.50;17.80;;;-2.60;99.90;;;;;;4949488;28;20308;-60
2024/01/17 04:29:23;;;;;;;18.57;17.07;;;-2.60;99.90;;;;;;4953756;28;20702;-61
2024/01/17 04:31:51;;;;;;;18.43;16.93;;;-2.60;99.90;;;;;;4945845;28;20293;-61
2024/01/17 04:34:18;;;;;;;18.00;16.50;;;-2.60;99.90;;;;;;4959642;28;20355;-61
2024/01/17 04:36:45;;;;;;;18.73;17.07;;;-2.70;99.90;;;;;;4958559;28;20650;-61
2024/01/17 04:39:12;;;;;;;18.43;16.57;;;-2.60;99.90;;;;;;4947892;28;20203;-61
2024/01/17 04:41:39;;;;;;;17.67;16.27;;;-2.60;99.90;;;;;;4961427;28;20529;-67
2024/01/17 04:44:06;;;;;;;18.53;16.90;;;-2.60;99.90;;;;;;4958055;28;20218;-67
2024/01/17 04:46:36;;;;;;;18.57;17.00;;;-2.70;99.90;;;;;;4957131;28;20894;-66
2024/01/17 04:49:02;;;;;;;19.10;17.67;;;-2.60;99.90;;;;;;4965109;28;20250;-66
2024/01/17 04:51:30;;;;;;;22.33;17.70;;;-2.70;99.90;;;;;;4953680;28;20210;-66
2024/01/17 04:53:58;;;;;;;18.63;16.90;;;-2.70;99.90;;;;;;4951220;28;20211;-67
2024/01/17 04:56:26;;;;;;;18.90;17.07;;;-2.80;99.90;;;;;;4939587;28;20507;-66
2024/01/17 04:58:53;;;;;;;20.10;18.27;;;-2.80;99.90;;;;;;4939972;28;20250;-66
2024/01/17 05:01:21;;;;;;;18.93;17.00;;;-2.80;99.90;;;;;;4942087;28;20237;-67
2024/01/17 05:03:48;;;;;;;18.57;17.13;;;-2.80;99.90;;;;;;4937624;28;20511;-67
2024/01/17 05:06:15;;;;;;;19.27;17.57;;;-2.90;99.90;;;;;;4943142;28;20702;-66
2024/01/17 05:08:42;;;;;;;19.43;17.93;;;-2.80;99.90;;;;;;4944355;28;20775;-68
2024/01/17 05:11:09;;;;;;;19.47;17.87;;;-2.90;99.90;;;;;;4919973;29;20277;-68
2024/01/17 05:13:38;;;;;;;18.87;17.17;;;-2.90;99.90;;;;;;4948711;28;20199;-68
2024/01/17 05:16:05;;;;;;;19.10;17.47;;;-2.90;99.90;;;;;;4944548;28;20639;-66
2024/01/17 05:18:33;;;;;;;19.77;18.20;;;-2.90;99.90;;;;;;4955447;28;20214;-66
2024/01/17 05:21:00;;;;;;;18.70;17.40;;;-2.90;99.90;;;;;;4936325;29;20202;-67
2024/01/17 05:23:27;;;;;;;19.37;17.87;;;-2.90;99.90;;;;;;4942899;28;20198;-65
2024/01/17 05:25:54;;;;;;;19.33;17.60;;;-2.90;99.90;;;;;;4950271;28;20190;-67
2024/01/17 05:28:21;;;;;;;19.70;18.20;;;-2.90;99.90;;;;;;4933242;28;20265;-66
2024/01/17 05:30:48;;;;;;;19.53;18.00;;;-2.90;99.90;;;;;;4954743;28;20210;-65
2024/01/17 05:33:16;;;;;;;22.73;19.80;;;-2.90;99.90;;;;;;4954042;28;20207;-66
2024/01/17 05:35:43;;;;;;;23.70;21.23;;;-2.90;99.90;;;;;;4936991;29;20297;-66
2024/01/17 05:38:10;;;;;;;21.07;19.20;;;-2.90;99.90;;;;;;4943117;28;20910;-68
2024/01/17 05:40:37;;;;;;;20.43;18.70;;;-3.00;99.90;;;;;;4940285;28;20290;-68
2024/01/17 05:43:05;;;;;;;20.67;18.77;;;-3.00;99.90;;;;;;4932072;28;20269;-67
2024/01/17 05:45:32;;;;;;;20.23;18.07;;;-3.00;99.90;;;;;;4960720;28;20590;-67
2024/01/17 05:47:59;;;;;;;20.70;18.80;;;-3.00;99.90;;;;;;4963491;28;20310;-67
2024/01/17 05:50:26;;;;;;;19.07;17.57;;;-3.00;99.90;;;;;;4943018;28;20238;-67
2024/01/17 05:52:53;;;;;;;23.80;21.60;;;-3.00;99.90;;;;;;4918459;28;20199;-63
2024/01/17 05:55:21;;;;;;;19.20;17.70;;;-3.10;99.90;;;;;;4935731;29;20234;-63
2024/01/17 05:57:50;;;;;;;20.00;18.33;;;-3.10;99.90;;;;;;4954560;28;20818;-62
2024/01/17 06:00:18;;;;;;;21.27;19.27;;;-3.10;99.90;;;;;;4933577;28;20313;-62
2024/01/17 06:02:45;;;;;;;19.83;17.87;;;-3.10;99.90;;;;;;4960033;28;20201;-61
2024/01/17 06:05:13;;;;;;;20.50;18.40;;;-3.10;99.90;;;;;;4961944;28;20835;-65
2024/01/17 06:07:40;;;;;;;23.67;18.07;;;-3.10;99.90;;;;;;4959441;28;20429;-62
2024/01/17 06:10:11;;;;;;;18.90;17.47;;;-3.10;99.90;;;;;;4937507;28;20248;-62
2024/01/17 06:12:39;;;;;;;20.20;18.30;;;-3.10;99.90;;;;;;4951291;28;20674;-62
2024/01/17 06:15:07;;;;;;;20.10;18.27;;;-3.10;99.90;;;;;;4930655;28;20293;-62
2024/01/17 06:17:34;;;;;;;21.43;19.33;;;-3.10;99.90;;;;;;4955171;28;20195;-63
2024/01/17 06:20:02;;;;;;;19.27;17.80;;;-3.10;99.90;;;;;;4957374;28;20689;-62
2024/01/17 06:22:29;;;;;;;19.87;18.23;;;-3.10;99.90;;;;;;4965989;28;20192;-62
2024/01/17 06:24:56;;;;;;;19.50;17.97;;;-3.10;99.90;;;;;;4962265;28;20984;-62
2024/01/17 06:27:23;;;;;;;19.27;17.80;;;-3.10;99.90;;;;;;4950767;28;20195;-62
2024/01/17 06:29:51;;;;;;;20.70;19.00;;;-3.10;99.90;;;;;;4953190;28;20277;-62
2024/01/17 06:32:18;;;;;;;19.80;18.30;;;-3.00;99.90;;;;;;4960473;28;20203;-62
2024/01/17 06:34:45;;;;;;;19.00;17.67;;;-3.00;99.90;;;;;;4963030;28;20214;-62
2024/01/17 06:37:12;;;;;;;20.73;18.93;;;-3.00;99.90;;;;;;4961720;28;20199;-63
2024/01/17 06:39:39;;;;;;;19.77;18.17;;;-3.10;99.90;;;;;;4933938;29;20222;-62
2024/01/17 06:42:06;;;;;;;20.57;18.87;;;-3.00;99.90;;;;;;4942646;28;20261;-62
2024/01/17 06:44:33;;;;;;;20.13;18.43;;;-3.00;99.90;;;;;;4953976;28;20214;-62
2024/01/17 06:47:00;;;;;;;21.67;19.70;;;-3.00;99.90;;;;;;4965321;28;20353;-63
2024/01/17 06:49:27;;;;;;;20.60;18.70;;;-3.00;99.90;;;;;;4955804;28;20195;-62
2024/01/17 06:51:57;;;;;;;19.27;17.70;;;-3.00;99.90;;;;;;4939214;28;20209;-62
2024/01/17 06:54:24;;;;;;;19.43;17.87;;;-3.00;99.90;;;;;;4953447;28;20231;-63
2024/01/17 06:56:52;;;;;;;20.37;18.73;;;-3.00;99.90;;;;;;4958185;28;20207;-62
2024/01/17 06:59:19;;;;;;;20.33;18.53;;;-3.00;99.90;;;;;;4955027;28;20581;-62
2024/01/17 07:01:46;;;;;;;20.20;18.37;;;-3.00;99.90;;;;;;4935277;28;20781;-68
2024/01/17 07:04:13;;;;;;;20.20;18.30;;;-3.00;99.90;;;;;;4917271;29;20632;-67
2024/01/17 07:06:40;;;;;;;20.80;18.80;;;-3.00;99.90;;;;;;4916348;29;20515;-67
2024/01/17 07:09:10;;;;;;;19.53;17.93;;;-3.00;99.90;;;;;;4910459;29;20208;-67
2024/01/17 07:11:37;;;;;;;19.67;18.07;;;-3.00;99.90;;;;;;4913006;29;20193;-65
2024/01/17 07:14:05;;;;;;;19.07;17.50;;;-3.00;99.90;;;;;;4922893;29;20623;-67
2024/01/17 07:16:31;;;;;;;20.87;19.23;;;-3.00;99.90;;;;;;4909286;29;20235;-67
2024/01/17 07:18:59;;;;;;;20.80;19.10;;;-3.00;99.90;;;;;;4923330;29;20223;-67
2024/01/17 07:21:27;;;;;;;20.40;18.53;;;-3.00;99.90;;;;;;4912575;29;20288;-68
2024/01/17 07:23:54;;;;;;;20.67;18.87;;;-3.00;99.90;;;;;;4929996;29;20611;-67
2024/01/17 07:26:21;;;;;;;26.07;18.47;;;-3.00;99.90;;;;;;4915467;29;20279;-68
2024/01/17 07:28:48;;;;;;;19.53;17.83;;;-3.00;99.90;;;;;;4918944;29;20325;-67
2024/01/17 07:31:16;;;;;;;20.03;18.37;;;-3.00;99.90;;;;;;4923978;29;20282;-68
2024/01/17 07:33:43;;;;;;;23.17;18.63;;;-3.00;99.90;;;;;;4927306;29;20206;-68
2024/01/17 07:36:10;;;;;;;20.63;18.67;;;-3.00;99.90;;;;;;4911768;29;20739;-68
2024/01/17 07:38:37;;;;;;;20.33;18.63;;;-3.00;99.90;;;;;;4919243;29;20299;-66
2024/01/17 07:41:04;;;;;;;20.33;18.33;;;-3.00;99.90;;;;;;4912309;29;20309;-67
2024/01/17 07:43:33;;;;;;;20.00;18.33;;;-3.00;99.90;;;;;;4912473;29;20538;-67
2024/01/17 07:46:01;;;;;;;20.57;19.03;;;-2.90;99.90;;;;;;4912220;29;20208;-68
2024/01/17 07:48:27;;;;;;;24.43;22.03;;;-2.90;99.90;;;;;;4921412;29;20215;-67
2024/01/17 07:50:55;;;;;;;21.10;19.23;;;-2.90;99.90;;;;;;4915545;29;20670;-67
2024/01/17 07:53:22;;;;;;;20.60;18.90;;;-2.90;99.90;;;;;;4926567;29;20587;-67
2024/01/17 07:55:49;;;;;;;20.63;18.30;;;-2.90;99.90;;;;;;4912490;29;20306;-67
2024/01/17 07:58:16;;;;;;;20.43;18.73;;;-2.80;99.90;;;;;;4927330;29;20667;-67
2024/01/17 08:00:43;;;;;;;19.70;18.10;;;-2.80;99.90;;;;;;4914458;29;20243;-67
2024/01/17 08:03:10;;;;;;;21.17;19.37;;;-2.70;99.90;;;;;;4910774;29;20650;-67
2024/01/17 08:05:37;;;;;;;19.83;18.40;;;-2.70;99.90;;;;;;4918651;29;20207;-67
2024/01/17 08:08:05;;;;;;;22.83;19.67;;;-2.70;99.90;;;;;;4924386;29;20209;-66
2024/01/17 08:10:32;;;;;;;21.23;19.07;;;-2.60;99.90;;;;;;4927720;29;20203;-67
2024/01/17 08:12:59;;;;;;;19.47;17.67;;;-2.60;99.90;;;;;;4917000;29;20211;-68
2024/01/17 08:15:26;;;;;;;19.27;17.47;;;-2.60;99.90;;;;;;4943504;29;20243;-67
2024/01/17 08:17:53;;;;;;;19.93;18.33;;;-2.60;99.90;;;;;;4912784;29;20225;-66
2024/01/17 08:20:20;;;;;;;19.73;18.00;;;-2.50;99.90;;;;;;4924046;29;20192;-66
2024/01/17 08:22:47;;;;;;;20.73;19.07;;;-2.50;99.90;;;;;;4920389;29;20219;-66
2024/01/17 08:25:14;;;;;;;19.70;17.90;;;-2.40;99.90;;;;;;4926989;29;20203;-66
2024/01/17 08:27:42;;;;;;;21.03;18.80;;;-2.30;99.90;;;;;;4918236;29;20204;-67
2024/01/17 08:30:10;;;;;;;20.43;18.43;;;-2.30;99.90;;;;;;4905683;29;20685;-67
2024/01/17 08:32:37;;;;;;;20.03;18.43;;;-2.30;99.90;;;;;;4917983;29;20539;-67
2024/01/17 08:35:06;;;;;;;20.17;18.57;;;-2.20;99.90;;;;;;4915382;29;20196;-67
2024/01/17 08:37:35;;;;;;;20.87;18.93;;;-2.20;99.90;;;;;;4902859;29;20220;-67
2024/01/17 08:40:03;;;;;;;19.57;18.07;;;-2.10;99.90;;;;;;4920600;29;20196;-67
2024/01/17 08:42:30;;;;;;;19.83;18.07;;;-2.00;99.90;;;;;;4928737;29;20290;-67
2024/01/17 08:44:57;;;;;;;19.63;18.00;;;-1.90;99.90;;;;;;4916665;29;20197;-67
2024/01/17 08:47:24;;;;;;;20.50;18.67;;;-1.80;99.90;;;;;;4916774;29;20220;-67
2024/01/17 08:49:53;;;;;;;19.03;17.50;;;-1.80;99.90;;;;;;4925136;29;20644;-68
2024/01/17 08:52:20;;;;;;;22.93;18.53;;;-1.80;99.90;;;;;;4901100;29;20208;-67
2024/01/17 08:54:48;;;;;;;19.87;18.23;;;-1.70;99.90;;;;;;4910305;29;20319;-67
2024/01/17 08:57:15;;;;;;;19.87;17.83;;;-1.50;99.90;;;;;;4907932;29;20510;-66
2024/01/17 08:59:42;;;;;;;18.90;17.47;;;-1.50;99.90;;;;;;4908242;29;20541;-67
2024/01/17 09:02:09;;;;;;;19.67;17.80;;;-1.40;99.90;;;;;;4946454;28;20202;-67
2024/01/17 09:04:36;;;;;;;20.13;18.47;;;-1.40;99.90;;;;;;4947373;28;20521;-66
2024/01/17 09:07:03;;;;;;;17.90;16.60;;;-1.20;99.90;;;;;;4922309;29;20306;-66
2024/01/17 09:09:31;;;;;;;19.73;17.83;;;-1.20;99.90;;;;;;4940589;28;20630;-66
2024/01/17 09:11:58;;;;;;;19.33;17.60;;;-1.20;99.90;;;;;;4942605;28;20200;-67
2024/01/17 09:14:25;;;;;;;19.23;17.53;;;-1.10;99.90;;;;;;4933176;28;20568;-64
2024/01/17 09:16:52;;;;;;;19.27;17.57;;;-1.10;99.90;;;;;;4932139;29;20278;-65
2024/01/17 09:19:23;;;;;;;19.33;17.53;;;-1.00;99.90;;;;;;4926905;29;20599;-65
2024/01/17 09:21:52;;;;;;;19.00;17.47;;;-0.90;99.90;;;;;;4929681;29;20204;-60
2024/01/17 09:24:22;;;;;;;19.93;18.13;;;-0.80;99.90;;;;;;4932771;29;20268;-60
2024/01/17 09:26:51;;;;;;;21.00;19.10;;;-0.70;99.90;;;;;;4939560;29;20314;-61
2024/01/17 09:29:20;;;;;;;21.17;18.07;;;-0.60;99.90;;;;;;4935961;29;20202;-60
2024/01/17 09:31:47;;;;;;;19.70;17.60;;;-0.50;99.90;;;;;;4941310;28;20210;-61
2024/01/17 09:34:15;;;;;;;20.10;18.33;;;-0.50;99.90;;;;;;4944319;28;20258;-61
2024/01/17 09:36:43;;;;;;;20.93;18.90;;;-0.20;99.90;;;;;;4932408;29;20208;-61
2024/01/17 09:39:10;;;;;;;19.37;17.70;;;0.20;99.90;;;;;;4949034;28;20573;-60
2024/01/17 09:41:37;;;;;;;19.53;17.60;;;0.50;99.90;;;;;;4959620;28;20711;-60
2024/01/17 09:44:04;;;;;;;19.10;17.60;;;0.70;99.90;;;;;;4947399;29;20210;-60
2024/01/17 09:46:36;;;;;;;19.63;18.07;;;1.10;99.90;;;;;;4930245;29;20199;-61
2024/01/17 09:49:04;;;;;;;24.60;18.13;;;1.20;99.90;;;;;;4946816;29;20213;-61
2024/01/17 09:51:32;;;;;;;19.27;17.60;;;1.30;99.90;;;;;;4943163;28;20271;-61
2024/01/17 09:54:04;;;;;;;19.20;17.47;;;1.40;99.90;;;;;;4947717;28;20589;-60
2024/01/17 09:56:33;;;;;;;18.23;16.97;;;1.60;99.90;;;;;;4941590;29;20646;-61
2024/01/17 09:59:17;;;;;;;20.50;18.70;;;1.70;99.90;;;;;;4951743;28;20675;-61
2024/01/17 10:01:44;;;;;;;18.93;17.10;;;1.70;99.90;;;;;;4964278;28;20304;-61
2024/01/17 10:04:13;;;;;;;19.00;17.40;;;1.70;99.90;;;;;;4957314;28;20237;-60
2024/01/17 10:06:44;;;;;;;19.43;17.77;;;1.70;99.90;;;;;;4968004;28;20198;-60
2024/01/17 10:09:13;;;;;;;21.10;19.23;;;1.90;99.90;;;;;;4960150;28;20209;-61
2024/01/17 10:11:41;;;;;;;19.93;18.07;;;1.90;99.90;;;;;;4952118;28;20218;-61
2024/01/17 10:14:08;;;;;;;18.80;17.30;;;1.90;99.90;;;;;;4944274;28;20190;-60
2024/01/17 10:16:35;;;;;;;20.43;18.43;;;1.60;99.90;;;;;;4954059;28;20523;-61
2024/01/17 10:19:04;;;;;;;18.33;16.93;;;1.60;99.90;;;;;;4929034;28;20679;-60
2024/01/17 10:21:35;;;;;;;18.93;17.23;;;1.40;99.90;;;;;;4961339;28;20246;-61
2024/01/17 10:24:03;;;;;;;19.47;17.80;;;1.30;99.90;;;;;;4933242;29;20477;-60
2024/01/17 10:26:32;;;;;;;18.87;17.17;;;1.20;99.90;;;;;;4920251;28;20204;-60
2024/01/17 10:28:59;;;;;;;18.63;17.20;;;1.00;99.90;;;;;;4957753;28;20220;-60
2024/01/17 10:31:26;;;;;;;20.63;18.73;;;0.80;99.90;;;;;;4963959;28;20199;-60
2024/01/17 10:33:53;;;;;;;20.90;19.03;;;0.80;99.90;;;;;;4948180;28;20194;-60
2024/01/17 10:36:21;;;;;;;20.13;18.43;;;0.50;99.90;;;;;;4966004;28;20267;-60
2024/01/17 10:38:49;;;;;;;20.17;18.37;;;0.50;99.90;;;;;;4951569;28;20187;-60
2024/01/17 10:41:17;;;;;;;19.70;18.20;;;0.40;99.90;;;;;;4951449;28;20207;-61
2024/01/17 10:43:55;;;;;;;25.23;19.20;;;0.40;99.90;;;;;;4943415;28;20183;-62
2024/01/17 10:46:26;;;;;;;21.17;19.10;;;0.40;99.90;;;;;;4941680;28;20221;-61
2024/01/17 10:48:53;;;;;;;20.13;18.43;;;0.50;99.90;;;;;;4957780;28;20561;-60
2024/01/17 10:51:22;;;;;;;18.67;17.17;;;0.50;99.90;;;;;;4956847;28;20280;-61
2024/01/17 10:53:54;;;;;;;19.30;17.57;;;0.50;99.90;;;;;;4947862;28;20207;-61
2024/01/17 10:56:23;;;;;;;19.17;17.57;;;0.40;99.90;;;;;;4950292;28;20676;-60
2024/01/17 10:58:52;;;;;;;20.20;18.30;;;0.40;99.90;;;;;;4932851;28;20581;-61
2024/01/17 11:01:31;;;;;;;18.70;17.20;;;0.30;99.90;;;;;;4950205;28;20245;-61
2024/01/17 11:04:10;;;;;;;19.87;18.50;;;0.30;99.90;;;;;;4952320;28;20198;-61
2024/01/17 11:06:38;;;;;;;19.43;18.03;;;0.20;99.90;;;;;;4939642;29;20289;-60
2024/01/17 11:09:10;;;;;;;19.90;18.40;;;0.40;99.90;;;;;;4945155;28;20206;-60
2024/01/17 11:11:39;;;;;;;22.93;20.53;;;0.60;99.90;;;;;;4961516;28;20213;-61
2024/01/17 11:14:08;;;;;;;20.33;18.53;;;0.60;99.90;;;;;;4950843;28;20222;-62
2024/01/17 11:16:39;;;;;;;20.03;18.33;;;0.60;99.90;;;;;;4948766;28;20227;-60
2024/01/17 11:19:07;;;;;;;19.23;17.50;;;0.50;99.90;;;;;;4931700;29;20664;-60
2024/01/17 11:21:36;;;;;;;19.50;17.97;;;0.60;99.90;;;;;;4937445;28;20688;-60
2024/01/17 11:24:30;;;;;;;19.33;17.73;;;0.50;99.90;;;;;;4959510;28;20687;-60
2024/01/17 11:27:22;;;;;;;19.37;17.77;;;0.70;99.90;;;;;;4961642;28;20562;-60
2024/01/17 11:30:11;;;;;;;19.00;17.27;;;0.60;99.90;;;;;;4939803;29;20191;-62
2024/01/17 11:32:45;;;;;;;18.43;17.03;;;0.50;99.90;;;;;;4952804;28;20646;-60
2024/01/17 11:35:41;;;;;;;23.93;20.83;;;0.60;99.90;;;;;;4952882;28;20206;-60
2024/01/17 11:38:29;;;;;;;19.07;17.60;;;0.70;99.90;;;;;;4949552;28;20204;-60
2024/01/17 11:41:05;;;;;;;19.10;17.40;;;0.60;99.90;;;;;;4955108;28;20225;-60
2024/01/17 11:43:36;;;;;;;19.10;16.80;;;0.70;99.90;;;;;;4951957;28;20630;-61
2024/01/17 11:46:05;;;;;;;17.47;16.27;;;0.70;99.90;;;;;;4946963;28;20612;-59
2024/01/17 11:48:34;;;;;;;19.37;17.67;;;0.70;99.90;;;;;;4935588;28;20194;-60
2024/01/17 11:51:01;;;;;;;18.67;17.03;;;0.80;99.90;;;;;;4954988;28;20243;-60
2024/01/17 11:53:30;;;;;;;18.43;17.03;;;0.90;99.90;;;;;;4951312;28;20512;-63
2024/01/17 11:56:03;;;;;;;18.80;17.30;;;0.90;99.90;;;;;;4955819;28;20213;-66
2024/01/17 11:58:43;;;;;;;18.37;17.00;;;1.00;99.90;;;;;;4963379;28;20190;-65
2024/01/17 12:01:12;;;;;;;18.20;16.90;;;1.20;99.90;;;;;;4954815;28;20234;-66
2024/01/17 12:03:41;;;;;;;18.70;17.30;;;1.30;99.90;;;;;;4949779;28;20223;-66
2024/01/17 12:06:09;;;;;;;17.73;16.40;;;1.10;99.90;;;;;;4955049;28;20190;-66
2024/01/17 12:08:37;;;;;;;19.07;17.47;;;1.10;99.90;;;;;;4959772;28;20235;-66
2024/01/17 12:11:08;;;;;;;19.10;17.30;;;1.10;99.90;;;;;;4953555;28;20194;-65
2024/01/17 12:13:36;;;;;;;18.07;16.57;;;1.10;99.90;;;;;;4951146;28;20195;-66
2024/01/17 12:16:04;;;;;;;18.30;17.00;;;1.10;99.90;;;;;;4967305;28;20216;-66
2024/01/17 12:18:32;;;;;;;18.70;17.20;;;1.00;99.90;;;;;;4954824;28;20215;-66
2024/01/17 12:21:03;;;;;;;19.93;18.13;;;0.90;99.90;;;;;;4938352;29;20199;-66
2024/01/17 12:23:32;;;;;;;19.13;17.53;;;0.80;99.90;;;;;;4937065;28;20264;-65
2024/01/17 12:26:00;;;;;;;19.23;17.33;;;0.80;99.90;;;;;;4942718;28;20190;-66
2024/01/17 12:28:28;;;;;;;19.13;17.43;;;0.90;99.90;;;;;;4954033;28;20257;-64
2024/01/17 12:31:00;;;;;;;19.03;17.43;;;0.80;99.90;;;;;;4933716;29;20250;-66
2024/01/17 12:33:29;;;;;;;18.93;17.33;;;0.90;99.90;;;;;;4934244;28;20628;-65
2024/01/17 12:35:57;;;;;;;18.63;17.03;;;0.80;99.90;;;;;;4959494;28;20306;-65
2024/01/17 12:38:25;;;;;;;18.40;17.00;;;0.80;99.90;;;;;;4945976;28;20200;-65